createdAt,value
2018-06-10T00:02:14.458Z,14.90
2018-06-10T00:04:41.779Z,16.53
2018-06-10T00:07:09.092Z,13.57
2018-06-10T00:09:36.415Z,13.30
2018-06-10T00:12:03.734Z,15.07
2018-06-10T00:14:31.045Z,15.17
2018-06-10T00:16:58.349Z,13.40
2018-06-10T00:19:25.677Z,14.17
2018-06-10T00:21:52.990Z,12.30
2018-06-10T00:24:20.320Z,11.60
2018-06-10T00:26:47.699Z,12.07
2018-06-10T00:29:15.310Z,11.70
2018-06-10T00:31:42.697Z,12.40
2018-06-10T00:34:09.991Z,13.07
2018-06-10T00:36:37.314Z,11.63
2018-06-10T00:39:06.424Z,11.43
2018-06-10T00:41:34.014Z,13.33
2018-06-10T00:44:01.350Z,15.03
2018-06-10T00:46:28.651Z,14.77
2018-06-10T00:48:56.021Z,14.83
2018-06-10T00:51:23.350Z,15.57
2018-06-10T00:53:50.678Z,16.00
2018-06-10T00:56:29.515Z,14.33
2018-06-10T00:58:56.856Z,15.30
2018-06-10T01:01:24.208Z,15.57
2018-06-10T01:03:51.531Z,15.20
2018-06-10T01:06:18.868Z,15.90
2018-06-10T01:08:46.182Z,15.80
2018-06-10T01:11:13.527Z,14.10
2018-06-10T01:13:40.934Z,15.97
2018-06-10T01:16:08.293Z,15.63
2018-06-10T01:18:35.698Z,15.07
2018-06-10T01:21:03.029Z,14.70
2018-06-10T01:23:30.419Z,15.13
2018-06-10T01:25:57.782Z,16.10
2018-06-10T01:28:25.089Z,14.37
2018-06-10T01:30:52.447Z,16.53
2018-06-10T01:33:19.804Z,16.63
2018-06-10T01:35:47.182Z,16.10
2018-06-10T01:38:14.507Z,15.47
2018-06-10T01:40:41.835Z,15.87
2018-06-10T01:43:09.156Z,16.07
2018-06-10T01:45:36.969Z,15.37
2018-06-10T01:48:04.312Z,17.10
2018-06-10T01:50:31.688Z,17.00
2018-06-10T01:52:59.033Z,17.17
2018-06-10T01:55:26.355Z,17.50
2018-06-10T01:57:53.724Z,17.47
2018-06-10T02:00:21.039Z,17.63
2018-06-10T02:02:48.363Z,18.03
2018-06-10T02:05:15.684Z,16.97
2018-06-10T02:07:43.040Z,22.03
2018-06-10T02:10:10.371Z,21.03
2018-06-10T02:12:37.726Z,19.80
2018-06-10T02:15:05.099Z,20.00
2018-06-10T02:17:32.417Z,26.30
2018-06-10T02:19:59.731Z,24.47
2018-06-10T02:22:27.185Z,23.63
2018-06-10T02:24:54.517Z,20.33
2018-06-10T02:27:21.846Z,22.13
2018-06-10T02:29:49.217Z,22.03
2018-06-10T02:32:16.565Z,23.00
2018-06-10T02:34:43.916Z,22.50
2018-06-10T02:37:11.281Z,22.43
2018-06-10T02:39:38.573Z,20.23
2018-06-10T02:42:05.952Z,23.83
2018-06-10T02:44:33.273Z,22.17
2018-06-10T02:47:00.617Z,24.77
2018-06-10T02:49:27.932Z,22.50
2018-06-10T02:51:55.287Z,25.17
2018-06-10T02:54:22.613Z,26.40
2018-06-10T02:56:49.971Z,30.20
2018-06-10T02:59:17.333Z,24.60
2018-06-10T03:01:44.687Z,24.43
2018-06-10T03:04:11.996Z,27.53
2018-06-10T03:06:39.297Z,25.40
2018-06-10T03:09:06.825Z,26.00
2018-06-10T03:11:34.180Z,27.33
2018-06-10T03:14:01.627Z,26.93
2018-06-10T03:16:28.946Z,30.17
2018-06-10T03:18:56.272Z,27.53
2018-06-10T03:21:23.623Z,30.60
2018-06-10T03:23:50.982Z,27.30
2018-06-10T03:26:18.300Z,30.53
2018-06-10T03:28:45.775Z,28.90
2018-06-10T03:31:13.198Z,27.10
2018-06-10T03:33:40.542Z,27.47
2018-06-10T03:36:07.892Z,29.90
2018-06-10T03:38:35.249Z,28.83
2018-06-10T03:41:02.630Z,29.33
2018-06-10T03:43:29.959Z,28.50
2018-06-10T03:45:57.299Z,28.63
2018-06-10T03:48:24.626Z,29.07
2018-06-10T03:50:51.971Z,26.83
2018-06-10T03:53:25.290Z,31.17
2018-06-10T03:55:52.617Z,29.77
2018-06-10T03:58:19.924Z,30.23
2018-06-10T04:00:47.275Z,27.43
2018-06-10T04:03:14.576Z,28.23
2018-06-10T04:05:41.894Z,24.53
2018-06-10T04:08:09.243Z,26.20
2018-06-10T04:10:36.570Z,28.90
2018-06-10T04:13:03.879Z,26.40
2018-06-10T04:15:31.238Z,26.67
2018-06-10T04:17:58.549Z,28.93
2018-06-10T04:20:25.887Z,26.67
2018-06-10T04:22:53.184Z,25.33
2018-06-10T04:25:20.506Z,25.20
2018-06-10T04:27:47.835Z,25.47
2018-06-10T04:30:15.186Z,25.93
2018-06-10T04:32:42.515Z,24.20
2018-06-10T04:35:09.829Z,23.20
2018-06-10T04:37:37.232Z,21.50
2018-06-10T04:40:04.550Z,24.37
2018-06-10T04:42:31.878Z,22.43
2018-06-10T04:44:59.203Z,19.93
2018-06-10T04:47:26.526Z,21.80
2018-06-10T04:49:53.871Z,22.80
2018-06-10T04:52:21.195Z,25.53
2018-06-10T04:54:48.515Z,25.37
2018-06-10T04:57:15.847Z,22.07
2018-06-10T04:59:43.146Z,23.00
2018-06-10T05:02:10.475Z,25.37
2018-06-10T05:04:37.785Z,21.47
2018-06-10T05:07:05.149Z,23.57
2018-06-10T05:09:32.535Z,24.30
2018-06-10T05:11:59.875Z,23.03
2018-06-10T05:14:27.198Z,24.63
2018-06-10T05:16:54.563Z,23.47
2018-06-10T05:19:21.859Z,24.17
2018-06-10T05:21:49.249Z,23.13
2018-06-10T05:24:16.554Z,21.73
2018-06-10T05:26:43.884Z,22.83
2018-06-10T05:29:11.907Z,20.57
2018-06-10T05:31:39.241Z,22.03
2018-06-10T05:34:06.603Z,19.07
2018-06-10T05:36:34.003Z,20.87
2018-06-10T05:39:01.306Z,17.13
2018-06-10T05:41:28.642Z,16.80
2018-06-10T05:43:55.952Z,17.67
2018-06-10T05:46:23.280Z,16.40
2018-06-10T05:48:50.614Z,17.00
2018-06-10T05:51:17.973Z,16.40
2018-06-10T05:53:45.349Z,16.83
2018-06-10T05:56:12.723Z,15.33
2018-06-10T05:58:40.099Z,16.83
2018-06-10T06:01:07.485Z,16.43
2018-06-10T06:03:34.667Z,18.60
2018-06-10T06:06:02.039Z,18.53
2018-06-10T06:08:29.391Z,16.40
2018-06-10T06:10:56.565Z,17.17
2018-06-10T06:13:24.053Z,15.73
2018-06-10T06:15:51.383Z,16.13
2018-06-10T06:18:18.728Z,15.70
2018-06-10T06:20:46.080Z,16.17
2018-06-10T06:23:13.443Z,15.87
2018-06-10T06:25:40.840Z,14.90
2018-06-10T06:28:08.146Z,17.53
2018-06-10T06:30:35.518Z,18.73
2018-06-10T06:33:02.868Z,18.97
2018-06-10T06:35:30.257Z,18.00
2018-06-10T06:37:57.602Z,19.27
2018-06-10T06:40:24.991Z,18.33
2018-06-10T06:42:52.317Z,16.50
2018-06-10T06:45:19.665Z,16.30
2018-06-10T06:47:46.995Z,16.17
2018-06-10T06:50:14.397Z,18.50
2018-06-10T06:52:41.771Z,17.13
2018-06-10T06:55:09.236Z,19.83
2018-06-10T06:57:36.582Z,20.23
2018-06-10T07:00:04.141Z,23.60
2018-06-10T07:02:31.556Z,19.50
2018-06-10T07:04:58.876Z,17.93
2018-06-10T07:07:26.250Z,19.17
2018-06-10T07:09:53.575Z,18.67
2018-06-10T07:12:20.934Z,18.00
2018-06-10T07:14:48.284Z,18.53
2018-06-10T07:17:15.661Z,20.00
2018-06-10T07:19:42.999Z,17.87
2018-06-10T07:22:10.291Z,20.00
2018-06-10T07:24:37.682Z,20.53
2018-06-10T07:27:05.055Z,17.20
2018-06-10T07:29:32.451Z,15.67
2018-06-10T07:31:59.824Z,17.63
2018-06-10T07:34:27.135Z,16.30
2018-06-10T07:36:54.549Z,16.93
2018-06-10T07:39:21.907Z,16.53
2018-06-10T07:41:49.236Z,17.00
2018-06-10T07:44:16.552Z,16.67
2018-06-10T07:46:43.983Z,16.57
2018-06-10T07:49:11.339Z,16.60
2018-06-10T07:51:38.678Z,14.73
2018-06-10T07:54:05.988Z,14.03
2018-06-10T07:56:33.385Z,14.40
2018-06-10T07:59:00.682Z,11.23
2018-06-10T08:01:28.006Z,10.30
2018-06-10T08:03:55.363Z,13.80
2018-06-10T08:06:22.662Z,13.10
2018-06-10T08:08:50.039Z,12.83
2018-06-10T08:11:17.348Z,15.30
2018-06-10T08:13:44.819Z,13.87
2018-06-10T08:16:12.150Z,12.60
2018-06-10T08:18:39.552Z,14.10
2018-06-10T08:21:06.851Z,14.80
2018-06-10T08:23:34.184Z,12.97
2018-06-10T08:26:01.528Z,13.03
2018-06-10T08:28:28.830Z,14.30
2018-06-10T08:30:56.144Z,13.57
2018-06-10T08:33:23.463Z,13.80
2018-06-10T08:35:50.906Z,13.37
2018-06-10T08:38:18.302Z,13.13
2018-06-10T08:40:45.663Z,12.73
2018-06-10T08:43:12.983Z,12.43
2018-06-10T08:45:40.396Z,15.10
2018-06-10T08:48:07.827Z,13.93
2018-06-10T08:50:35.332Z,13.83
2018-06-10T08:53:02.653Z,12.67
2018-06-10T08:55:29.997Z,14.50
2018-06-10T08:57:57.330Z,15.60
2018-06-10T09:00:24.760Z,15.80
2018-06-10T09:02:52.306Z,15.70
2018-06-10T09:05:19.625Z,15.20
2018-06-10T09:07:46.984Z,14.40
2018-06-10T09:10:14.305Z,13.60
2018-06-10T09:12:41.659Z,13.00
2018-06-10T09:15:09.010Z,14.50
2018-06-10T09:17:36.393Z,14.80
2018-06-10T09:20:03.752Z,15.37
2018-06-10T09:22:31.191Z,14.90
2018-06-10T09:24:58.611Z,13.60
2018-06-10T09:27:25.984Z,13.20
2018-06-10T09:29:53.331Z,16.67
2018-06-10T09:32:20.656Z,15.13
2018-06-10T09:34:47.979Z,13.87
2018-06-10T09:37:15.358Z,13.60
2018-06-10T09:39:42.660Z,14.00
2018-06-10T09:42:10.069Z,15.47
2018-06-10T09:44:37.315Z,13.60
2018-06-10T09:47:04.783Z,15.17
2018-06-10T09:49:32.160Z,13.70
2018-06-10T09:51:59.502Z,11.00
2018-06-10T09:54:26.835Z,11.43
2018-06-10T09:56:54.245Z,10.57
2018-06-10T09:59:21.556Z,10.40
2018-06-10T10:01:48.920Z,10.97
2018-06-10T10:04:16.271Z,11.90
2018-06-10T10:06:43.580Z,10.37
2018-06-10T10:09:10.928Z,10.60
2018-06-10T10:11:38.331Z,10.47
2018-06-10T10:14:05.682Z,10.40
2018-06-10T10:16:33.072Z,11.13
2018-06-10T10:19:00.526Z,9.60
2018-06-10T10:21:27.927Z,11.60
2018-06-10T10:23:55.324Z,10.60
2018-06-10T10:26:22.663Z,10.47
2018-06-10T10:28:50.018Z,11.53
2018-06-10T10:31:17.381Z,11.90
2018-06-10T10:33:44.739Z,10.80
2018-06-10T10:36:12.148Z,10.90
2018-06-10T10:38:39.504Z,11.83
2018-06-10T10:41:06.874Z,10.90
2018-06-10T10:43:34.184Z,11.03
2018-06-10T10:46:01.775Z,11.77
2018-06-10T10:48:29.193Z,10.70
2018-06-10T10:50:56.612Z,10.77
2018-06-10T10:53:23.938Z,10.00
2018-06-10T10:55:51.275Z,9.73
2018-06-10T10:58:18.597Z,10.53
2018-06-10T11:00:45.938Z,10.90
2018-06-10T11:03:13.251Z,9.57
2018-06-10T11:05:40.552Z,9.73
2018-06-10T11:08:07.954Z,10.30
2018-06-10T11:10:35.232Z,9.90
2018-06-10T11:13:02.679Z,10.10
2018-06-10T11:15:30.010Z,10.03
2018-06-10T11:17:57.310Z,10.73
2018-06-10T11:20:24.634Z,8.40
2018-06-10T11:22:51.951Z,10.50
2018-06-10T11:25:19.250Z,10.00
2018-06-10T11:27:46.571Z,9.37
2018-06-10T11:30:13.859Z,10.30
2018-06-10T11:32:41.222Z,9.33
2018-06-10T11:35:08.527Z,9.87
2018-06-10T11:37:35.851Z,9.10
2018-06-10T11:40:03.195Z,9.70
2018-06-10T11:42:30.655Z,8.80
2018-06-10T11:44:57.842Z,9.67
2018-06-10T11:47:25.152Z,8.80
2018-06-10T11:49:52.467Z,9.53
2018-06-10T11:52:19.772Z,9.50
2018-06-10T11:54:47.084Z,9.60
2018-06-10T11:57:14.521Z,9.07
2018-06-10T11:59:41.843Z,8.77
2018-06-10T12:02:09.371Z,10.23
2018-06-10T12:04:36.731Z,10.70
2018-06-10T12:07:04.047Z,9.57
2018-06-10T12:09:31.355Z,9.80
2018-06-10T12:11:58.676Z,9.60
2018-06-10T12:14:26.096Z,10.10
2018-06-10T12:16:53.451Z,9.83
2018-06-10T12:19:20.755Z,9.60
2018-06-10T12:21:48.103Z,10.53
2018-06-10T12:24:15.419Z,10.40
2018-06-10T12:26:42.720Z,10.40
2018-06-10T12:29:10.036Z,12.23
2018-06-10T12:31:37.329Z,10.00
2018-06-10T12:34:04.678Z,11.53
2018-06-10T12:36:31.995Z,11.63
2018-06-10T12:38:59.329Z,11.03
2018-06-10T12:41:26.753Z,18.03
2018-06-10T12:43:54.015Z,12.80
2018-06-10T12:46:21.354Z,13.17
2018-06-10T12:48:48.699Z,11.70
2018-06-10T12:51:16.026Z,12.40
2018-06-10T12:53:43.359Z,15.57
2018-06-10T12:56:10.675Z,12.30
2018-06-10T12:58:37.996Z,11.80
2018-06-10T13:01:05.479Z,11.37
2018-06-10T13:03:32.818Z,10.17
2018-06-10T13:06:00.136Z,10.77
2018-06-10T13:08:27.466Z,10.83
2018-06-10T13:10:54.879Z,10.50
2018-06-10T13:13:22.204Z,8.80
2018-06-10T13:15:49.559Z,8.80
2018-06-10T13:18:16.896Z,8.57
2018-06-10T13:20:44.218Z,8.53
2018-06-10T13:23:11.532Z,7.70
2018-06-10T13:25:38.994Z,8.57
2018-06-10T13:28:06.160Z,7.57
2018-06-10T13:30:33.459Z,7.00
2018-06-10T13:33:00.864Z,7.47
2018-06-10T13:35:28.189Z,7.37
2018-06-10T13:37:55.494Z,8.10
2018-06-10T13:40:22.730Z,7.83
2018-06-10T13:42:50.063Z,7.57
2018-06-10T13:45:17.449Z,8.47
2018-06-10T13:47:44.819Z,7.50
2018-06-10T13:50:12.231Z,8.10
2018-06-10T13:52:39.553Z,9.30
2018-06-10T13:55:07.044Z,8.77
2018-06-10T13:57:34.369Z,9.00
2018-06-10T14:00:01.691Z,8.20
2018-06-10T14:02:29.014Z,8.70
2018-06-10T14:04:56.356Z,8.30
2018-06-10T14:07:23.707Z,8.20
2018-06-10T14:09:51.469Z,9.63
2018-06-10T14:12:18.835Z,8.20
2018-06-10T14:14:46.129Z,8.33
2018-06-10T14:17:13.486Z,8.47
2018-06-10T14:19:40.802Z,9.70
2018-06-10T14:22:08.311Z,8.50
2018-06-10T14:24:35.692Z,16.47
2018-06-10T14:27:02.977Z,8.90
2018-06-10T14:29:30.285Z,8.90
2018-06-10T14:31:57.636Z,9.40
2018-06-10T14:34:24.967Z,8.30
2018-06-10T14:36:52.276Z,9.00
2018-06-10T14:39:19.581Z,9.80
2018-06-10T14:41:46.896Z,10.47
2018-06-10T14:44:14.066Z,8.93
2018-06-10T14:46:41.479Z,10.20
2018-06-10T14:49:08.783Z,9.07
2018-06-10T14:51:36.076Z,9.43
2018-06-10T14:54:03.437Z,8.93
2018-06-10T14:56:30.746Z,9.20
2018-06-10T14:58:58.059Z,9.00
2018-06-10T15:01:25.392Z,8.53
2018-06-10T15:03:52.708Z,8.93
2018-06-10T15:06:20.007Z,9.73
2018-06-10T15:08:47.409Z,9.10
2018-06-10T15:11:14.726Z,9.57
2018-06-10T15:13:42.126Z,9.30
2018-06-10T15:16:09.482Z,9.00
2018-06-10T15:18:36.786Z,9.90
2018-06-10T15:21:04.083Z,9.80
2018-06-10T15:23:31.420Z,9.10
2018-06-10T15:25:58.836Z,10.47
2018-06-10T15:28:26.157Z,10.50
2018-06-10T15:30:53.546Z,9.77
2018-06-10T15:33:20.868Z,10.90
2018-06-10T15:35:48.196Z,10.60
2018-06-10T15:38:15.513Z,13.03
2018-06-10T15:40:42.806Z,9.77
2018-06-10T15:43:10.169Z,11.57
2018-06-10T15:45:37.482Z,11.10
2018-06-10T15:48:04.813Z,10.43
2018-06-10T15:50:32.144Z,10.07
2018-06-10T15:52:59.476Z,12.10
2018-06-10T15:55:26.876Z,13.30
2018-06-10T15:57:54.186Z,10.27
2018-06-10T16:00:21.523Z,11.53
2018-06-10T16:02:48.831Z,10.87
2018-06-10T16:05:16.278Z,11.57
2018-06-10T16:07:43.557Z,9.83
2018-06-10T16:10:10.896Z,14.23
2018-06-10T16:12:38.267Z,13.50
2018-06-10T16:15:05.677Z,10.10
2018-06-10T16:17:32.864Z,10.73
2018-06-10T16:20:05.946Z,10.60
2018-06-10T16:22:33.281Z,9.87
2018-06-10T16:25:00.788Z,10.87
2018-06-10T16:27:28.084Z,10.17
2018-06-10T16:29:55.454Z,9.80
2018-06-10T16:32:22.772Z,9.83
2018-06-10T16:34:50.132Z,11.23
2018-06-10T16:37:17.451Z,10.50
2018-06-10T16:39:44.778Z,10.17
2018-06-10T16:42:12.161Z,10.93
2018-06-10T16:44:39.570Z,12.13
2018-06-10T16:47:06.930Z,11.67
2018-06-10T16:49:34.321Z,14.93
2018-06-10T16:52:01.673Z,13.80
2018-06-10T16:54:29.140Z,13.27
2018-06-10T16:56:56.526Z,12.43
2018-06-10T16:59:24.004Z,13.60
2018-06-10T17:01:51.398Z,14.43
2018-06-10T17:04:18.823Z,14.10
2018-06-10T17:06:47.050Z,12.93
2018-06-10T17:09:14.616Z,11.57
2018-06-10T17:11:41.903Z,10.37
2018-06-10T17:14:09.259Z,10.67
2018-06-10T17:16:36.714Z,9.87
2018-06-10T17:19:04.052Z,10.03
2018-06-10T17:21:31.608Z,11.67
2018-06-10T17:23:58.920Z,11.43
2018-06-10T17:26:26.381Z,10.47
2018-06-10T17:28:53.716Z,11.87
2018-06-10T17:31:21.094Z,11.43
2018-06-10T17:33:48.472Z,11.70
2018-06-10T17:36:15.864Z,12.50
2018-06-10T17:38:43.182Z,12.60
2018-06-10T17:41:10.511Z,13.30
2018-06-10T17:43:37.897Z,12.83
2018-06-10T17:46:05.288Z,14.20
2018-06-10T17:48:32.694Z,13.60
2018-06-10T17:51:00.034Z,14.20
2018-06-10T17:53:27.367Z,13.83
2018-06-10T17:55:54.705Z,14.57
2018-06-10T17:58:22.077Z,14.07
2018-06-10T18:00:49.444Z,16.37
2018-06-10T18:03:16.880Z,15.57
2018-06-10T18:05:44.329Z,16.80
2018-06-10T18:08:11.651Z,16.07
2018-06-10T18:10:39.012Z,16.23
2018-06-10T18:13:06.342Z,14.80
2018-06-10T18:15:33.994Z,17.67
2018-06-10T18:18:01.341Z,16.33
2018-06-10T18:20:28.665Z,17.83
2018-06-10T18:22:55.970Z,16.93
2018-06-10T18:25:23.325Z,16.63
2018-06-10T18:27:50.603Z,16.90
2018-06-10T18:30:18.024Z,17.50
2018-06-10T18:32:45.492Z,18.40
2018-06-10T18:35:12.817Z,17.70
2018-06-10T18:37:39.995Z,18.37
2018-06-10T18:40:07.335Z,18.70
2018-06-10T18:42:34.709Z,17.50
2018-06-10T18:45:02.004Z,18.10
2018-06-10T18:47:29.314Z,18.87
2018-06-10T18:49:56.623Z,17.37
2018-06-10T18:52:23.912Z,19.50
2018-06-10T18:54:51.251Z,18.27
2018-06-10T18:57:18.546Z,18.20
2018-06-10T18:59:45.955Z,17.27
2018-06-10T19:02:13.289Z,17.53
2018-06-10T19:04:40.585Z,19.60
2018-06-10T19:07:07.964Z,19.67
2018-06-10T19:09:35.277Z,17.90
2018-06-10T19:12:02.579Z,19.10
2018-06-10T19:14:29.903Z,19.17
2018-06-10T19:16:57.209Z,20.30
2018-06-10T19:19:24.623Z,20.07
2018-06-10T19:21:51.947Z,18.53
2018-06-10T19:24:19.314Z,20.50
2018-06-10T19:26:46.680Z,20.80
2018-06-10T19:29:14.196Z,18.43
2018-06-10T19:31:41.504Z,18.57
2018-06-10T19:34:08.843Z,20.00
2018-06-10T19:36:36.157Z,20.20
2018-06-10T19:39:05.546Z,20.23
2018-06-10T19:41:32.843Z,20.03
2018-06-10T19:44:00.195Z,21.00
2018-06-10T19:46:27.557Z,21.40
2018-06-10T19:48:54.895Z,21.70
2018-06-10T19:51:22.259Z,23.00
2018-06-10T19:53:49.702Z,22.27
2018-06-10T19:56:17.057Z,22.70
2018-06-10T19:58:44.412Z,22.37
2018-06-10T20:01:11.772Z,22.40
2018-06-10T20:03:39.268Z,22.63
2018-06-10T20:06:06.610Z,21.60
2018-06-10T20:08:33.938Z,23.00
2018-06-10T20:11:01.296Z,22.50
2018-06-10T20:13:28.663Z,21.27
2018-06-10T20:15:56.018Z,24.40
2018-06-10T20:18:23.353Z,21.90
2018-06-10T20:20:50.683Z,23.10
2018-06-10T20:23:18.051Z,22.53
2018-06-10T20:25:45.658Z,22.13
2018-06-10T20:28:12.984Z,20.83
2018-06-10T20:30:40.376Z,23.53
2018-06-10T20:33:07.625Z,23.27
2018-06-10T20:35:34.976Z,23.73
2018-06-10T20:38:02.285Z,23.53
2018-06-10T20:40:29.640Z,23.17
2018-06-10T20:42:56.991Z,21.73
2018-06-10T20:45:24.359Z,23.03
2018-06-10T20:47:51.786Z,28.17
2018-06-10T20:50:19.305Z,111.17
2018-06-10T20:52:46.772Z,47.23
2018-06-10T20:55:14.260Z,90.90
2018-06-10T20:57:41.587Z,105.03
2018-06-10T21:00:08.952Z,27.57
2018-06-10T21:02:36.266Z,136.03
2018-06-10T21:05:03.605Z,82.93
2018-06-10T21:07:30.937Z,40.93
2018-06-10T21:09:58.334Z,64.10
2018-06-10T21:12:25.674Z,26.63
2018-06-10T21:14:53.021Z,37.40
2018-06-10T21:17:20.423Z,31.87
2018-06-10T21:19:47.832Z,27.60
2018-06-10T21:22:15.213Z,46.40
2018-06-10T21:24:42.540Z,25.83
2018-06-10T21:27:09.892Z,24.10
2018-06-10T21:29:37.395Z,22.90
2018-06-10T21:32:04.730Z,22.57
2018-06-10T21:34:32.051Z,22.47
2018-06-10T21:36:59.401Z,23.20
2018-06-10T21:39:26.951Z,24.23
2018-06-10T21:41:54.406Z,23.50
2018-06-10T21:44:21.728Z,22.00
2018-06-10T21:46:49.083Z,21.30
2018-06-10T21:49:16.428Z,23.50
2018-06-10T21:51:43.893Z,23.43
2018-06-10T21:54:11.265Z,22.13
2018-06-10T21:56:38.513Z,22.27
2018-06-10T21:59:05.834Z,21.00
2018-06-10T22:01:33.219Z,22.07
2018-06-10T22:04:00.565Z,23.10
2018-06-10T22:06:27.923Z,22.73
2018-06-10T22:08:55.280Z,22.33
2018-06-10T22:11:22.624Z,21.80
2018-06-10T22:13:50.134Z,22.90
2018-06-10T22:16:17.521Z,22.33
2018-06-10T22:18:44.839Z,22.30
2018-06-10T22:21:12.192Z,23.13
2018-06-10T22:23:39.518Z,24.30
2018-06-10T22:26:06.879Z,23.50
2018-06-10T22:28:34.210Z,25.90
2018-06-10T22:31:01.543Z,20.97
2018-06-10T22:33:28.888Z,21.83
2018-06-10T22:35:56.219Z,20.80
2018-06-10T22:38:23.581Z,21.17
2018-06-10T22:40:50.921Z,18.23
2018-06-10T22:43:18.247Z,18.57
2018-06-10T22:45:45.595Z,18.13
2018-06-10T22:48:12.939Z,18.13
2018-06-10T22:50:40.276Z,17.27
2018-06-10T22:53:18.500Z,16.80
2018-06-10T22:55:45.846Z,18.20
2018-06-10T22:58:13.201Z,17.63
2018-06-10T23:00:40.620Z,16.47
2018-06-10T23:03:07.976Z,17.60
2018-06-10T23:05:35.331Z,16.47
2018-06-10T23:08:02.727Z,17.63
2018-06-10T23:10:30.056Z,15.63
2018-06-10T23:12:57.517Z,17.17
2018-06-10T23:15:24.845Z,14.63
2018-06-10T23:17:52.172Z,15.63
2018-06-10T23:20:19.496Z,16.03
2018-06-10T23:22:46.805Z,15.93
2018-06-10T23:25:14.284Z,16.30
2018-06-10T23:27:41.609Z,17.10
2018-06-10T23:30:08.936Z,17.43
2018-06-10T23:32:36.247Z,16.53
2018-06-10T23:35:03.562Z,17.80
2018-06-10T23:37:30.868Z,17.07
2018-06-10T23:39:58.184Z,17.10
2018-06-10T23:42:25.555Z,17.47
2018-06-10T23:44:52.878Z,16.30
2018-06-10T23:47:20.336Z,16.50
2018-06-10T23:49:47.646Z,14.93
2018-06-10T23:52:14.955Z,15.77
2018-06-10T23:54:42.259Z,14.93
2018-06-10T23:57:09.579Z,16.27
2018-06-10T23:59:36.890Z,15.07
